createdAt,value
2023-02-22T00:02:10.272Z,46.77
2023-02-22T00:04:40.144Z,46.60
2023-02-22T00:07:08.116Z,46.53
2023-02-22T00:09:35.993Z,47.10
2023-02-22T00:12:03.931Z,46.73
2023-02-22T00:14:31.767Z,46.70
2023-02-22T00:16:59.979Z,46.53
2023-02-22T00:19:30.749Z,46.57
2023-02-22T00:21:59.982Z,47.00
2023-02-22T00:24:29.325Z,46.73
2023-02-22T00:26:57.225Z,46.57
2023-02-22T00:29:25.956Z,46.70
2023-02-22T00:31:54.324Z,46.70
2023-02-22T00:34:24.000Z,46.53
2023-02-22T00:36:52.164Z,46.87
2023-02-22T00:39:21.454Z,46.63
2023-02-22T00:41:49.684Z,46.60
2023-02-22T00:44:17.676Z,46.47
2023-02-22T00:46:46.444Z,46.73
2023-02-22T00:49:16.030Z,46.53
2023-02-22T00:51:44.039Z,46.47
2023-02-22T00:54:11.954Z,46.57
2023-02-22T00:56:41.139Z,46.60
2023-02-22T00:59:08.938Z,46.70
2023-02-22T01:01:36.917Z,46.63
2023-02-22T01:04:04.939Z,46.70
2023-02-22T01:06:32.836Z,46.70
2023-02-22T01:09:02.093Z,46.53
2023-02-22T01:11:30.576Z,46.40
2023-02-22T01:14:00.412Z,46.67
2023-02-22T01:16:28.689Z,46.77
2023-02-22T01:18:56.585Z,46.60
2023-02-22T01:21:24.448Z,46.57
2023-02-22T01:23:52.305Z,46.63
2023-02-22T01:26:20.222Z,46.50
2023-02-22T01:28:48.091Z,46.40
2023-02-22T01:31:17.627Z,46.37
2023-02-22T01:33:45.657Z,46.53
2023-02-22T01:36:15.100Z,46.20
2023-02-22T01:38:42.934Z,46.33
2023-02-22T01:41:10.866Z,46.40
2023-02-22T01:43:39.742Z,46.40
2023-02-22T01:46:08.664Z,46.57
2023-02-22T01:48:44.313Z,46.40
2023-02-22T01:51:15.770Z,46.37
2023-02-22T01:53:49.791Z,46.43
2023-02-22T01:56:20.189Z,46.40
2023-02-22T01:58:53.703Z,46.27
2023-02-22T02:01:24.215Z,46.23
2023-02-22T02:03:58.031Z,46.60
2023-02-22T02:06:26.965Z,46.50
2023-02-22T02:09:01.702Z,46.50
2023-02-22T02:11:30.598Z,46.50
2023-02-22T02:14:00.943Z,46.20
2023-02-22T02:16:38.836Z,46.50
2023-02-22T02:19:16.568Z,46.70
2023-02-22T02:22:23.230Z,46.57
2023-02-22T02:25:27.798Z,46.50
2023-02-22T02:28:12.250Z,46.43
2023-02-22T02:31:11.968Z,46.53
2023-02-22T02:33:45.960Z,46.30
2023-02-22T02:36:20.413Z,46.70
2023-02-22T02:38:55.856Z,46.30
2023-02-22T02:41:28.816Z,46.43
2023-02-22T02:44:01.868Z,46.70
2023-02-22T02:46:35.763Z,46.13
2023-02-22T02:49:09.574Z,46.17
2023-02-22T02:51:40.672Z,46.57
2023-02-22T02:54:09.591Z,46.23
2023-02-22T02:56:37.481Z,46.30
2023-02-22T02:59:24.340Z,46.33
2023-02-22T03:02:03.068Z,46.70
2023-02-22T03:04:45.390Z,46.20
2023-02-22T03:07:26.428Z,46.27
2023-02-22T03:10:08.658Z,46.40
2023-02-22T03:12:45.321Z,46.60
2023-02-22T03:15:23.298Z,46.53
2023-02-22T03:17:57.491Z,46.43
2023-02-22T03:20:33.799Z,46.27
2023-02-22T03:23:09.671Z,46.27
2023-02-22T03:25:44.075Z,46.30
2023-02-22T03:28:16.576Z,46.33
2023-02-22T03:30:49.826Z,46.13
2023-02-22T03:33:21.029Z,46.37
2023-02-22T03:35:57.395Z,46.30
2023-02-22T03:38:28.842Z,46.17
2023-02-22T03:41:00.508Z,46.30
2023-02-22T03:43:32.584Z,46.27
2023-02-22T03:46:04.644Z,46.37
2023-02-22T03:48:38.803Z,46.40
2023-02-22T03:51:09.968Z,46.40
2023-02-22T03:53:38.059Z,46.37
2023-02-22T03:56:10.369Z,46.27
2023-02-22T03:58:39.789Z,46.23
2023-02-22T04:01:08.057Z,46.27
2023-02-22T04:03:35.877Z,46.40
2023-02-22T04:06:03.875Z,46.20
2023-02-22T04:08:33.287Z,46.20
2023-02-22T04:11:01.285Z,46.13
2023-02-22T04:13:29.641Z,46.20
2023-02-22T04:15:58.933Z,46.27
2023-02-22T04:18:27.407Z,46.30
2023-02-22T04:20:55.253Z,46.00
2023-02-22T04:23:38.359Z,46.17
2023-02-22T04:26:06.564Z,46.30
2023-02-22T04:28:34.444Z,46.13
2023-02-22T04:31:10.876Z,46.23
2023-02-22T04:33:39.150Z,46.00
2023-02-22T04:36:07.947Z,46.13
2023-02-22T04:38:38.315Z,46.10
2023-02-22T04:41:06.407Z,46.07
2023-02-22T04:43:34.292Z,46.13
2023-02-22T04:46:22.441Z,46.10
2023-02-22T04:48:50.409Z,46.17
2023-02-22T04:51:22.184Z,46.10
2023-02-22T04:53:59.622Z,46.10
2023-02-22T04:56:27.514Z,46.10
2023-02-22T04:58:55.536Z,46.20
2023-02-22T05:01:24.506Z,46.40
2023-02-22T05:03:52.505Z,46.20
2023-02-22T05:06:20.316Z,46.23
2023-02-22T05:08:48.195Z,46.30
2023-02-22T05:11:17.660Z,46.10
2023-02-22T05:13:45.680Z,46.20
2023-02-22T05:16:13.976Z,46.10
2023-02-22T05:18:41.941Z,46.00
2023-02-22T05:21:10.396Z,46.20
2023-02-22T05:23:38.225Z,46.33
2023-02-22T05:26:06.618Z,46.13
2023-02-22T05:28:35.822Z,46.03
2023-02-22T05:31:04.168Z,45.97
2023-02-22T05:33:32.042Z,45.77
2023-02-22T05:35:59.872Z,46.17
2023-02-22T05:38:27.715Z,46.10
2023-02-22T05:40:56.830Z,46.20
2023-02-22T05:43:24.691Z,45.97
2023-02-22T05:45:53.901Z,46.20
2023-02-22T05:48:22.710Z,46.03
2023-02-22T05:50:50.788Z,46.10
2023-02-22T05:53:18.640Z,46.20
2023-02-22T05:55:46.691Z,45.83
2023-02-22T05:58:15.058Z,46.10
2023-02-22T06:00:43.046Z,45.80
2023-02-22T06:03:13.453Z,45.97
2023-02-22T06:05:42.694Z,45.90
2023-02-22T06:08:11.891Z,45.80
2023-02-22T06:10:39.757Z,46.17
2023-02-22T06:13:08.045Z,46.07
2023-02-22T06:15:35.902Z,45.93
2023-02-22T06:18:04.163Z,45.87
2023-02-22T06:20:35.373Z,46.10
2023-02-22T06:23:03.199Z,46.03
2023-02-22T06:25:32.649Z,45.90
2023-02-22T06:28:01.776Z,46.33
2023-02-22T06:30:30.401Z,45.83
2023-02-22T06:32:58.281Z,46.00
2023-02-22T06:35:26.148Z,45.90
2023-02-22T06:37:55.399Z,45.90
2023-02-22T06:40:23.284Z,45.93
2023-02-22T06:42:51.190Z,45.90
2023-02-22T06:45:19.554Z,46.00
2023-02-22T06:47:47.803Z,45.80
2023-02-22T06:50:21.633Z,45.90
2023-02-22T06:52:49.513Z,45.90
2023-02-22T06:55:24.365Z,46.00
2023-02-22T06:57:52.653Z,45.77
2023-02-22T07:00:22.132Z,45.87
2023-02-22T07:02:50.251Z,45.77
2023-02-22T07:05:20.247Z,45.70
2023-02-22T07:07:48.936Z,45.90
2023-02-22T07:10:20.156Z,45.73
2023-02-22T07:12:49.869Z,45.60
2023-02-22T07:15:18.999Z,45.97
2023-02-22T07:17:46.875Z,45.83
2023-02-22T07:20:14.828Z,45.73
2023-02-22T07:22:42.810Z,45.80
2023-02-22T07:25:12.257Z,46.03
2023-02-22T07:27:41.484Z,45.70
2023-02-22T07:30:17.910Z,46.00
2023-02-22T07:32:46.683Z,45.87
2023-02-22T07:35:20.455Z,45.97
2023-02-22T07:37:48.333Z,46.03
2023-02-22T07:40:17.305Z,46.00
2023-02-22T07:42:52.989Z,45.97
2023-02-22T07:45:25.367Z,46.10
2023-02-22T07:47:53.485Z,46.17
2023-02-22T07:50:22.424Z,46.00
2023-02-22T07:52:53.610Z,46.20
2023-02-22T07:55:23.519Z,45.90
2023-02-22T07:57:53.104Z,45.93
2023-02-22T08:00:26.390Z,45.97
2023-02-22T08:02:54.845Z,45.93
2023-02-22T08:05:24.254Z,45.77
2023-02-22T08:07:52.144Z,46.00
2023-02-22T08:10:22.297Z,46.03
2023-02-22T08:12:50.968Z,46.17
2023-02-22T08:15:20.592Z,46.17
2023-02-22T08:17:49.798Z,45.90
2023-02-22T08:20:18.005Z,46.10
2023-02-22T08:22:45.872Z,46.13
2023-02-22T08:25:15.396Z,45.97
2023-02-22T08:27:43.795Z,45.77
2023-02-22T08:30:16.078Z,45.57
2023-02-22T08:32:44.042Z,46.00
2023-02-22T08:35:13.904Z,46.17
2023-02-22T08:37:44.155Z,46.30
2023-02-22T08:40:14.725Z,46.20
2023-02-22T08:42:42.875Z,46.37
2023-02-22T08:45:12.126Z,46.00
2023-02-22T08:47:40.270Z,46.23
2023-02-22T08:50:09.016Z,46.50
2023-02-22T08:52:38.261Z,46.17
2023-02-22T08:55:07.024Z,46.40
2023-02-22T08:57:34.864Z,46.47
2023-02-22T09:00:03.016Z,46.23
2023-02-22T09:02:30.887Z,46.30
2023-02-22T09:04:58.728Z,46.03
2023-02-22T09:07:26.640Z,46.43
2023-02-22T09:09:55.820Z,46.20
2023-02-22T09:12:23.728Z,46.43
2023-02-22T09:14:51.569Z,46.60
2023-02-22T09:17:19.437Z,46.47
2023-02-22T09:19:47.264Z,46.70
2023-02-22T09:22:15.231Z,46.73
2023-02-22T09:24:43.444Z,46.87
2023-02-22T09:27:12.939Z,46.63
2023-02-22T09:29:40.829Z,46.57
2023-02-22T09:32:08.829Z,46.90
2023-02-22T09:34:36.719Z,47.13
2023-02-22T09:37:08.674Z,47.20
2023-02-22T09:39:37.851Z,46.83
2023-02-22T09:43:35.614Z,47.23
2023-02-22T09:46:19.125Z,47.27
2023-02-22T09:49:00.361Z,46.93
2023-02-22T09:51:35.588Z,47.17
2023-02-22T09:54:07.763Z,46.80
2023-02-22T09:56:36.371Z,46.80
2023-02-22T09:59:08.801Z,46.90
2023-02-22T10:01:43.873Z,47.03
2023-02-22T10:04:18.491Z,47.20
2023-02-22T10:06:58.901Z,47.00
2023-02-22T10:09:29.219Z,46.93
2023-02-22T10:12:00.939Z,47.20
2023-02-22T10:14:48.306Z,47.00
2023-02-22T10:17:27.270Z,47.20
2023-02-22T10:20:06.065Z,47.30
2023-02-22T10:22:45.824Z,47.13
2023-02-22T10:25:17.902Z,47.40
2023-02-22T10:27:53.123Z,47.40
2023-02-22T10:30:25.606Z,47.47
2023-02-22T10:33:02.012Z,47.47
2023-02-22T10:35:33.832Z,47.57
2023-02-22T10:38:14.805Z,47.33
2023-02-22T10:40:46.085Z,47.47
2023-02-22T10:43:13.993Z,47.80
2023-02-22T10:45:41.934Z,47.90
2023-02-22T10:48:15.320Z,48.07
2023-02-22T10:50:45.820Z,47.60
2023-02-22T10:53:15.250Z,47.67
2023-02-22T10:56:13.646Z,47.80
2023-02-22T10:58:43.848Z,47.90
2023-02-22T11:01:34.629Z,47.60
2023-02-22T11:04:09.863Z,47.70
2023-02-22T11:06:38.790Z,47.80
2023-02-22T11:09:13.265Z,47.80
2023-02-22T11:11:43.297Z,47.87
2023-02-22T11:14:11.996Z,47.63
2023-02-22T11:16:43.332Z,48.30
2023-02-22T11:19:23.022Z,48.00
2023-02-22T11:21:54.118Z,47.77
2023-02-22T11:24:30.388Z,48.00
2023-02-22T11:27:03.493Z,47.90
2023-02-22T11:29:33.856Z,48.23
2023-02-22T11:32:05.261Z,48.00
2023-02-22T11:34:37.529Z,48.07
2023-02-22T11:37:30.732Z,48.20
2023-02-22T11:40:17.675Z,48.10
2023-02-22T11:42:45.950Z,48.17
2023-02-22T11:45:17.176Z,48.07
2023-02-22T11:47:53.409Z,48.23
2023-02-22T11:50:34.750Z,48.40
2023-02-22T11:53:29.442Z,48.40
2023-02-22T11:56:13.870Z,48.23
2023-02-22T11:58:47.747Z,48.47
2023-02-22T12:01:24.351Z,48.27
2023-02-22T12:04:28.726Z,48.27
2023-02-22T12:07:32.848Z,48.27
2023-02-22T12:10:15.468Z,48.43
2023-02-22T12:13:01.689Z,48.50
2023-02-22T12:15:32.458Z,48.20
2023-02-22T12:18:06.842Z,48.47
2023-02-22T12:20:39.832Z,48.67
2023-02-22T12:23:19.972Z,48.53
2023-02-22T12:25:58.683Z,48.63
2023-02-22T12:28:33.100Z,48.43
2023-02-22T12:31:11.681Z,48.77
2023-02-22T12:33:49.763Z,49.03
2023-02-22T12:36:20.770Z,48.40
2023-02-22T12:38:56.359Z,49.00
2023-02-22T12:41:32.655Z,48.73
2023-02-22T12:44:05.010Z,48.80
2023-02-22T12:46:37.083Z,48.57
2023-02-22T12:49:15.089Z,48.80
2023-02-22T12:51:49.600Z,48.60
2023-02-22T12:54:29.032Z,48.67
2023-02-22T12:57:01.940Z,48.60
2023-02-22T12:59:34.250Z,48.77
2023-02-22T13:02:10.910Z,48.80
2023-02-22T13:04:38.857Z,48.70
2023-02-22T13:07:17.559Z,48.63
2023-02-22T13:10:14.284Z,48.70
2023-02-22T13:12:52.255Z,48.93
2023-02-22T13:15:25.363Z,48.23
2023-02-22T13:18:03.018Z,48.83
2023-02-22T13:20:37.476Z,48.87
2023-02-22T13:23:12.200Z,48.87
2023-02-22T13:25:46.605Z,48.90
2023-02-22T13:28:23.124Z,48.77
2023-02-22T13:31:02.797Z,49.00
2023-02-22T13:33:44.850Z,49.23
2023-02-22T13:36:27.815Z,49.10
2023-02-22T13:39:21.136Z,49.13
2023-02-22T13:41:56.143Z,48.90
2023-02-22T13:45:05.065Z,48.90
2023-02-22T13:47:50.959Z,49.10
2023-02-22T13:50:48.621Z,49.30
2023-02-22T13:53:21.494Z,49.03
2023-02-22T13:55:56.546Z,49.23
2023-02-22T13:58:26.574Z,49.07
2023-02-22T14:00:56.651Z,49.00
2023-02-22T14:03:40.684Z,49.00
2023-02-22T14:06:41.456Z,49.13
2023-02-22T14:09:10.200Z,48.87
2023-02-22T14:11:43.033Z,49.20
2023-02-22T14:14:14.617Z,48.97
2023-02-22T14:16:42.593Z,48.83
2023-02-22T14:19:17.614Z,49.03
2023-02-22T14:22:02.091Z,48.97
2023-02-22T14:24:31.630Z,48.80
2023-02-22T14:27:03.388Z,48.67
2023-02-22T14:29:32.866Z,49.20
2023-02-22T14:32:06.213Z,48.83
2023-02-22T14:34:50.477Z,49.03
2023-02-22T14:37:21.584Z,49.17
2023-02-22T14:39:51.610Z,49.10
2023-02-22T14:42:24.949Z,48.97
2023-02-22T14:45:02.557Z,48.77
2023-02-22T14:47:39.847Z,48.77
2023-02-22T14:50:15.602Z,49.30
2023-02-22T14:52:47.310Z,49.17
2023-02-22T14:55:22.533Z,48.93
2023-02-22T14:58:01.222Z,49.03
2023-02-22T15:00:41.748Z,49.13
2023-02-22T15:03:19.600Z,49.03
2023-02-22T15:05:49.575Z,49.40
2023-02-22T15:08:27.917Z,49.07
2023-02-22T15:10:56.233Z,49.40
2023-02-22T15:13:26.639Z,49.03
2023-02-22T15:16:01.584Z,49.33
2023-02-22T15:18:34.774Z,49.13
2023-02-22T15:21:09.766Z,49.13
2023-02-22T15:23:44.819Z,49.40
2023-02-22T15:26:21.343Z,49.27
2023-02-22T15:28:53.716Z,48.83
2023-02-22T15:31:30.100Z,49.20
2023-02-22T15:33:58.376Z,49.30
2023-02-22T15:36:30.823Z,49.00
2023-02-22T15:38:58.701Z,48.77
2023-02-22T15:41:31.383Z,49.27
2023-02-22T15:44:14.259Z,49.03
2023-02-22T15:46:55.067Z,48.77
2023-02-22T15:49:25.069Z,48.73
2023-02-22T15:52:20.282Z,49.07
2023-02-22T15:54:50.449Z,48.67
2023-02-22T15:57:21.201Z,49.00
2023-02-22T15:59:53.619Z,48.90
2023-02-22T16:02:32.396Z,48.83
2023-02-22T16:05:05.130Z,48.83
2023-02-22T16:07:33.618Z,48.87
2023-02-22T16:10:08.932Z,49.03
2023-02-22T16:12:37.041Z,49.10
2023-02-22T16:15:17.272Z,49.13
2023-02-22T16:18:00.975Z,48.67
2023-02-22T16:20:33.434Z,48.80
2023-02-22T16:23:01.466Z,48.73
2023-02-22T16:25:35.506Z,48.80
2023-02-22T16:28:06.182Z,48.80
2023-02-22T16:30:36.568Z,48.73
2023-02-22T16:33:13.267Z,48.47
2023-02-22T16:35:51.513Z,48.83
2023-02-22T16:38:21.083Z,48.93
2023-02-22T16:40:52.280Z,48.80
2023-02-22T16:43:23.008Z,48.77
2023-02-22T16:45:52.765Z,48.37
2023-02-22T16:48:23.867Z,48.27
2023-02-22T16:50:53.650Z,48.73
2023-02-22T16:53:24.184Z,48.60
2023-02-22T16:55:57.555Z,48.60
2023-02-22T16:58:27.790Z,48.33
2023-02-22T17:00:57.223Z,48.53
2023-02-22T17:03:27.369Z,48.53
2023-02-22T17:05:55.218Z,48.40
2023-02-22T17:08:23.741Z,48.60
2023-02-22T17:10:56.644Z,48.17
2023-02-22T17:13:27.888Z,48.50
2023-02-22T17:15:56.013Z,48.30
2023-02-22T17:18:28.549Z,48.33
2023-02-22T17:20:56.984Z,48.33
2023-02-22T17:23:27.493Z,48.40
2023-02-22T17:25:56.817Z,48.37
2023-02-22T17:28:25.492Z,48.27
2023-02-22T17:30:54.394Z,48.43
2023-02-22T17:33:26.780Z,48.13
2023-02-22T17:35:55.938Z,48.50
2023-02-22T17:38:24.123Z,48.13
2023-02-22T17:40:52.437Z,48.27
2023-02-22T17:43:20.340Z,48.13
2023-02-22T17:45:48.659Z,48.20
2023-02-22T17:48:18.106Z,48.13
2023-02-22T17:50:49.272Z,48.07
2023-02-22T17:53:21.487Z,47.87
2023-02-22T17:55:50.213Z,48.00
2023-02-22T17:58:18.462Z,48.00
2023-02-22T18:00:48.873Z,47.80
2023-02-22T18:03:21.396Z,48.17
2023-02-22T18:05:55.942Z,47.67
2023-02-22T18:08:24.419Z,47.80
2023-02-22T18:10:56.373Z,47.83
2023-02-22T18:13:26.192Z,47.70
2023-02-22T18:15:59.741Z,47.73
2023-02-22T18:18:30.747Z,47.50
2023-02-22T18:21:00.266Z,47.83
2023-02-22T18:23:30.364Z,47.53
2023-02-22T18:26:10.675Z,47.77
2023-02-22T18:28:39.607Z,47.47
2023-02-22T18:31:08.647Z,47.70
2023-02-22T18:33:36.864Z,47.67
2023-02-22T18:36:07.180Z,47.70
2023-02-22T18:38:35.080Z,47.30
2023-02-22T18:41:04.572Z,47.43
2023-02-22T18:43:34.159Z,47.70
2023-02-22T18:46:13.568Z,47.70
2023-02-22T18:48:41.686Z,47.70
2023-02-22T18:51:13.230Z,47.70
2023-02-22T18:53:46.634Z,47.70
2023-02-22T18:56:17.734Z,47.47
2023-02-22T18:58:46.385Z,47.47
2023-02-22T19:01:17.169Z,47.47
2023-02-22T19:03:46.989Z,47.73
2023-02-22T19:06:17.910Z,47.50
2023-02-22T19:08:47.013Z,47.63
2023-02-22T19:11:19.189Z,47.53
2023-02-22T19:13:48.371Z,47.57
2023-02-22T19:16:19.679Z,47.27
2023-02-22T19:18:48.525Z,47.63
2023-02-22T19:21:18.298Z,47.50
2023-02-22T19:23:47.851Z,47.77
2023-02-22T19:26:18.561Z,47.60
2023-02-22T19:28:50.029Z,47.63
2023-02-22T19:31:20.529Z,47.47
2023-02-22T19:33:51.341Z,47.30
2023-02-22T19:36:22.877Z,47.63
2023-02-22T19:38:52.305Z,47.57
2023-02-22T19:41:22.645Z,47.60
2023-02-22T19:43:56.207Z,47.17
2023-02-22T19:46:24.904Z,47.57
2023-02-22T19:48:55.207Z,47.43
2023-02-22T19:51:28.556Z,47.70
2023-02-22T19:53:58.766Z,47.83
2023-02-22T19:56:28.189Z,47.53
2023-02-22T19:58:57.816Z,47.60
2023-02-22T20:01:27.623Z,47.60
2023-02-22T20:03:59.737Z,47.63
2023-02-22T20:06:31.845Z,47.63
2023-02-22T20:08:59.713Z,47.30
2023-02-22T20:11:28.609Z,47.57
2023-02-22T20:13:57.795Z,47.40
2023-02-22T20:16:25.786Z,47.50
2023-02-22T20:18:54.443Z,47.57
2023-02-22T20:21:25.669Z,47.60
2023-02-22T20:23:57.100Z,47.67
2023-02-22T20:26:26.318Z,47.63
2023-02-22T20:28:54.851Z,47.60
2023-02-22T20:31:23.056Z,47.67
2023-02-22T20:33:57.117Z,47.53
2023-02-22T20:36:25.291Z,47.60
2023-02-22T20:38:55.823Z,47.63
2023-02-22T20:41:25.858Z,47.57
2023-02-22T20:43:57.568Z,47.47
2023-02-22T20:46:27.230Z,47.77
2023-02-22T20:48:56.312Z,47.33
2023-02-22T20:51:24.775Z,47.60
2023-02-22T20:53:56.204Z,47.33
2023-02-22T20:56:25.109Z,47.27
2023-02-22T20:58:53.278Z,47.43
2023-02-22T21:01:22.426Z,47.50
2023-02-22T21:03:51.179Z,47.23
2023-02-22T21:06:21.258Z,47.53
2023-02-22T21:08:53.484Z,47.43
2023-02-22T21:11:24.222Z,47.37
2023-02-22T21:13:52.269Z,47.40
2023-02-22T21:16:22.544Z,47.47
2023-02-22T21:18:52.215Z,47.50
2023-02-22T21:21:20.634Z,47.37
2023-02-22T21:23:50.631Z,47.70
2023-02-22T21:26:20.654Z,47.33
2023-02-22T21:28:51.742Z,47.20
2023-02-22T21:31:21.593Z,47.50
2023-02-22T21:33:50.745Z,47.43
2023-02-22T21:36:19.010Z,47.47
2023-02-22T21:38:53.003Z,47.47
2023-02-22T21:41:23.490Z,47.40
2023-02-22T21:43:53.218Z,47.27
2023-02-22T21:46:22.574Z,47.33
2023-02-22T21:48:50.679Z,46.97
2023-02-22T21:51:20.955Z,47.50
2023-02-22T21:53:52.231Z,47.43
2023-02-22T21:56:24.136Z,47.40
2023-02-22T21:58:59.607Z,47.30
2023-02-22T22:01:28.646Z,47.57
2023-02-22T22:04:00.038Z,47.40
2023-02-22T22:06:28.945Z,47.60
2023-02-22T22:08:58.001Z,47.30
2023-02-22T22:11:25.971Z,47.70
2023-02-22T22:13:57.264Z,47.47
2023-02-22T22:16:26.795Z,47.37
2023-02-22T22:18:55.111Z,47.33
2023-02-22T22:21:24.478Z,47.60
2023-02-22T22:23:55.910Z,47.50
2023-02-22T22:26:25.621Z,47.17
2023-02-22T22:28:57.331Z,47.60
2023-02-22T22:31:26.810Z,47.73
2023-02-22T22:33:56.797Z,47.33
2023-02-22T22:36:26.418Z,47.30
2023-02-22T22:38:57.171Z,47.10
2023-02-22T22:41:27.896Z,47.43
2023-02-22T22:43:57.360Z,47.57
2023-02-22T22:46:25.367Z,47.47
2023-02-22T22:48:53.230Z,47.40
2023-02-22T22:51:22.342Z,47.43
2023-02-22T22:53:51.930Z,47.30
2023-02-22T22:56:25.838Z,47.70
2023-02-22T22:58:55.722Z,47.70
2023-02-22T23:01:27.882Z,47.23
2023-02-22T23:04:01.824Z,47.33
2023-02-22T23:06:32.719Z,47.30
2023-02-22T23:09:10.074Z,47.40
2023-02-22T23:11:39.140Z,47.27
2023-02-22T23:14:07.556Z,47.47
2023-02-22T23:16:36.828Z,46.97
2023-02-22T23:19:07.788Z,47.37
2023-02-22T23:21:35.896Z,47.37
2023-02-22T23:24:06.462Z,47.37
2023-02-22T23:26:35.187Z,47.67
2023-02-22T23:29:03.721Z,47.33
2023-02-22T23:31:32.000Z,47.50
2023-02-22T23:34:06.529Z,47.27
2023-02-22T23:36:34.694Z,47.30
2023-02-22T23:39:02.546Z,47.17
2023-02-22T23:41:31.322Z,47.60
2023-02-22T23:43:59.934Z,47.30
2023-02-22T23:46:32.679Z,47.20
2023-02-22T23:49:02.662Z,47.30
2023-02-22T23:51:38.974Z,47.40
2023-02-22T23:54:08.048Z,47.10
2023-02-22T23:56:36.702Z,47.37
2023-02-22T23:59:10.805Z,47.30
